Hauptseite
METAR-TAF:

METAR-TAF

Flughäfen :

Nouakchott, Mauretanien

Flughafen Nouakchott-Oumtounsy

Breite: 18-18-36N, Länge: 015-58-11W, Höhe: 3 m

Beobachtung

Neuester Wetterbericht von vor 40 Minuten, um 14:00 UTC
Wind 18 kt aus Nordwest
Temperatur 28°C
Luftfeuchtigkeit 58%
Luftdruck 1012 hPa
Sichtweite: 8000 m

METAR: GQNO 221400Z 31018KT 8000 NSC 28/19 Q1012 NOSIG

Zeit: 14:40 (14:40 UTC)

Prognose

Neuester Wetterbericht von vor 9 Stunden und 40 Minuten, um 05:00 UTC
Gültige Prognose vom 22 um 06 UTC bis 23 um 12 UTC
Wind 14 kt aus Nord/Nordwest
Sichtweite: 8000 m
Durchbrochene Bewölkung in der Höhe von 800 ft
Übergehend zu
vom 22 um 09 UTC bis 22 um 11 UTC
Aufgelockert bewölkt in der Höhe von 800 ft
Wahrscheinlichkeit 40% :
Zeitweise
vom 22 um 17 UTC bis 22 um 20 UTC
Sichtweite: 4000 m
Sandtreiben

TAF: GQNO 220500Z 2206/2312 33014KT 8000 BKN008 BECMG 2209/2211 SCT008 PROB40 TEMPO 2217/2220 4000 BLSA

Wetterbeobachtungen und Prognosen von mehr als 4000 Flughäfen (METAR und TAF Bericht).

Die verfügbaren Stationen werden durch gelbe und rote Markierungen auf der Karte dargestellt.

Führen Sie die Maus auf sie, um den Namen der Station zu sehen.

Darauf klicken, um die Beobachtung von Wetterbeobachtungen und Prognosen zu sehen.

Um die Karte zu ändern : klicken Sie auf den grünen Tasten mit einem schwarzen Kreuz Zum Vergrößern, auf den grünen Button mit einem Gedankenstrich zu verkleinern, oder auf die grünen Pfeile für benachbarte Karten.


METAR-TAF: